Time;durP1;ratioP1;P1;durP2;ratioP2;P2;SDS_P1;SDS_P2;PMS_P1;PMS_P2;Temp;Humidity;BMP_temperature;BMP_pressure;BME280_temperature;BME280_humidity;BME280_pressure;Samples;Min_cycle;Max_cycle;Signal;HPM_P1;HPM_P2
2021/08/06 00:01:32;;;;;;;6.00;3.47;;;;;;;15.10;92.08;98315.53;4993153;28;20046;-61
2021/08/06 00:03:59;;;;;;;6.18;3.33;;;;;;;15.10;91.84;98319.06;4991994;28;20030;-61
2021/08/06 00:06:27;;;;;;;8.40;3.97;;;;;;;15.06;91.81;98311.84;4975474;28;20168;-60
2021/08/06 00:08:53;;;;;;;5.88;3.78;;;;;;;14.98;91.81;98312.50;4993122;28;20058;-61
2021/08/06 00:11:19;;;;;;;6.82;3.80;;;;;;;14.94;92.07;98308.78;4991344;28;20049;-61
2021/08/06 00:13:44;;;;;;;5.88;3.70;;;;;;;14.90;92.37;98311.25;4993161;28;20030;-61
2021/08/06 00:16:09;;;;;;;5.88;3.78;;;;;;;14.84;91.96;98310.53;4992881;28;20097;-61
2021/08/06 00:18:35;;;;;;;11.18;4.82;;;;;;;14.80;91.87;98301.44;4993384;28;20022;-61
2021/08/06 00:21:00;;;;;;;6.55;4.40;;;;;;;14.81;91.84;98308.44;4992918;28;20061;-61
2021/08/06 00:23:26;;;;;;;7.55;4.57;;;;;;;14.78;91.83;98313.63;4993217;28;20437;-61
2021/08/06 00:25:51;;;;;;;7.55;4.15;;;;;;;14.80;91.25;98303.31;4992851;28;20030;-60
2021/08/06 00:28:17;;;;;;;6.13;4.30;;;;;;;14.74;91.51;98308.00;4993134;28;20038;-60
2021/08/06 00:30:42;;;;;;;15.50;4.60;;;;;;;14.70;91.63;98309.66;4992750;28;20038;-61
2021/08/06 00:33:07;;;;;;;9.57;4.32;;;;;;;14.74;91.23;98302.59;4993204;28;20022;-61
2021/08/06 00:35:33;;;;;;;7.40;4.00;;;;;;;14.79;91.06;98304.41;4992572;28;20045;-61
2021/08/06 00:37:58;;;;;;;9.50;4.25;;;;;;;14.84;90.59;98297.03;4993540;28;20026;-61
2021/08/06 00:40:24;;;;;;;11.73;4.60;;;;;;;14.82;90.56;98299.22;4992714;28;20034;-61
2021/08/06 00:42:50;;;;;;;7.13;4.50;;;;;;;14.87;90.33;98295.66;4993003;28;20030;-60
2021/08/06 00:45:15;;;;;;;8.13;4.03;;;;;;;14.93;89.46;98293.72;4991678;28;20022;-61
2021/08/06 00:47:40;;;;;;;13.57;4.55;;;;;;;14.92;89.58;98298.28;4992960;28;20022;-61
2021/08/06 00:50:06;;;;;;;8.00;4.05;;;;;;;14.87;89.29;98293.75;4975198;28;20085;-61
2021/08/06 00:52:32;;;;;;;6.53;4.35;;;;;;;14.93;89.12;98293.72;4993053;28;20022;-61
2021/08/06 00:54:57;;;;;;;7.65;4.60;;;;;;;14.89;89.23;98299.66;4992125;28;20078;-60
2021/08/06 00:57:23;;;;;;;8.07;3.97;;;;;;;14.90;88.80;98305.84;4992600;28;20034;-61
2021/08/06 00:59:48;;;;;;;9.63;4.40;;;;;;;14.85;88.63;98298.66;4993125;28;20030;-61
2021/08/06 01:02:19;;;;;;;7.75;3.97;;;;;;;14.81;88.81;98294.16;4992486;28;20030;-61
2021/08/06 01:04:57;;;;;;;6.15;3.88;;;;;;;14.78;88.93;98292.84;4991706;28;20527;-61
2021/08/06 01:07:30;;;;;;;7.78;4.63;;;;;;;14.73;89.24;98292.91;4992091;28;20058;-61
2021/08/06 01:09:58;;;;;;;7.82;3.97;;;;;;;14.69;89.72;98289.19;4993163;28;20033;-61
2021/08/06 01:12:30;;;;;;;5.65;4.13;;;;;;;14.65;89.63;98288.16;4991158;28;20041;-61
2021/08/06 01:14:57;;;;;;;11.48;4.40;;;;;;;14.57;89.84;98280.72;4992017;28;20500;-61
2021/08/06 01:17:22;;;;;;;10.90;4.78;;;;;;;14.58;89.84;98288.53;4994768;28;20101;-61
2021/08/06 01:19:55;;;;;;;5.70;4.35;;;;;;;14.56;90.04;98287.22;4995034;28;20425;-60
2021/08/06 01:22:22;;;;;;;8.85;4.53;;;;;;;14.55;90.40;98278.34;4994231;28;20434;-60
2021/08/06 01:25:05;;;;;;;7.57;4.72;;;;;;;14.57;90.26;98272.63;4996318;28;20061;-61
2021/08/06 01:27:30;;;;;;;7.75;4.38;;;;;;;14.58;90.18;98274.25;4995680;28;20066;-61
2021/08/06 01:29:55;;;;;;;10.40;4.65;;;;;;;14.50;90.24;98269.47;4994776;28;20018;-61
2021/08/06 01:32:21;;;;;;;8.45;4.88;;;;;;;14.51;90.24;98271.09;4995453;28;20031;-61
2021/08/06 01:34:46;;;;;;;7.15;4.55;;;;;;;14.61;89.64;98270.97;4995885;28;20034;-60
2021/08/06 01:37:12;;;;;;;7.47;4.55;;;;;;;14.61;89.35;98268.28;4995477;28;20038;-61
2021/08/06 01:39:37;;;;;;;8.90;4.60;;;;;;;14.60;89.20;98272.88;4995988;28;20403;-60
2021/08/06 01:42:11;;;;;;;8.50;4.47;;;;;;;14.57;89.52;98275.34;4994235;28;20428;-60
2021/08/06 01:44:42;;;;;;;11.85;4.68;;;;;;;14.60;89.62;98272.03;4994715;28;20376;-60
2021/08/06 01:47:10;;;;;;;11.15;4.50;;;;;;;14.58;89.58;98276.97;4978415;28;20035;-61
2021/08/06 01:49:41;;;;;;;8.27;4.43;;;;;;;14.52;89.96;98272.69;4994308;28;20050;-61
2021/08/06 01:52:09;;;;;;;7.75;4.38;;;;;;;14.54;89.44;98270.53;4994117;28;20089;-60
2021/08/06 01:54:34;;;;;;;9.57;4.75;;;;;;;14.56;89.50;98268.34;4978295;28;20023;-61
2021/08/06 01:57:00;;;;;;;8.05;4.30;;;;;;;14.46;89.75;98264.66;4977268;28;20042;-61
2021/08/06 01:59:26;;;;;;;6.53;4.30;;;;;;;14.43;89.99;98250.97;4995419;28;20034;-60
2021/08/06 02:01:52;;;;;;;11.02;4.70;;;;;;;14.37;90.01;98261.00;4993891;28;20043;-61
2021/08/06 02:04:18;;;;;;;8.07;3.92;;;;;;;14.35;90.76;98255.13;4994249;28;20037;-60
2021/08/06 02:06:43;;;;;;;8.88;4.53;;;;;;;14.37;90.59;98254.81;4993929;28;20042;-60
2021/08/06 02:09:14;;;;;;;22.63;4.88;;;;;;;14.40;90.27;98254.22;4995388;28;20552;-60
2021/08/06 02:11:39;;;;;;;13.02;4.43;;;;;;;14.46;89.73;98253.88;4995131;28;20039;-60
2021/08/06 02:14:06;;;;;;;11.60;4.57;;;;;;;14.52;89.50;98254.59;4993671;28;20033;-60
2021/08/06 02:16:31;;;;;;;14.10;4.05;;;;;;;14.52;89.75;98253.81;4994819;28;20042;-62
2021/08/06 02:18:57;;;;;;;9.20;4.20;;;;;;;14.55;89.98;98255.94;4995194;28;20026;-61
2021/08/06 02:21:33;;;;;;;10.32;4.50;;;;;;;14.52;90.53;98253.81;4993643;28;20046;-60
2021/08/06 02:24:04;;;;;;;8.95;4.53;;;;;;;14.49;90.78;98240.91;4993983;28;20461;-62
2021/08/06 02:26:30;;;;;;;18.55;4.43;;;;;;;14.44;90.95;98239.88;4994634;28;20031;-61
2021/08/06 02:28:56;;;;;;;12.13;4.53;;;;;;;14.44;91.42;98244.47;4995033;28;20026;-62
2021/08/06 02:31:21;;;;;;;8.07;4.47;;;;;;;14.35;91.65;98232.75;4977149;28;20031;-61
2021/08/06 02:33:47;;;;;;;10.77;4.43;;;;;;;14.35;91.78;98247.03;4993619;28;20030;-61
2021/08/06 02:36:12;;;;;;;19.77;4.32;;;;;;;14.43;91.63;98246.38;4976847;28;20048;-61
2021/08/06 02:38:39;;;;;;;6.35;3.97;;;;;;;14.42;91.16;98236.69;4993664;28;20030;-61
2021/08/06 02:41:04;;;;;;;7.57;4.07;;;;;;;14.53;91.16;98242.78;4976713;28;20124;-61
2021/08/06 02:43:30;;;;;;;11.52;4.50;;;;;;;14.45;90.81;98230.72;4994668;28;20022;-62
2021/08/06 02:45:55;;;;;;;8.95;4.38;;;;;;;14.46;90.80;98232.31;4994273;28;20046;-61
2021/08/06 02:48:20;;;;;;;10.13;4.38;;;;;;;14.36;91.59;98227.06;4994926;28;20034;-62
2021/08/06 02:50:46;;;;;;;14.48;4.68;;;;;;;14.38;91.67;98224.09;4994257;28;20030;-62
2021/08/06 02:53:11;;;;;;;8.10;4.20;;;;;;;14.44;91.99;98231.81;4994528;28;20049;-62
2021/08/06 02:55:37;;;;;;;13.52;4.70;;;;;;;14.37;92.02;98227.88;4993907;28;20046;-61
2021/08/06 02:58:03;;;;;;;6.60;4.45;;;;;;;14.39;91.87;98221.09;4994428;28;20041;-60
2021/08/06 03:00:28;;;;;;;11.13;4.55;;;;;;;14.37;91.96;98227.88;4994099;28;20057;-61
2021/08/06 03:02:53;;;;;;;8.73;4.15;;;;;;;14.41;92.17;98235.09;4993025;28;20037;-60
2021/08/06 03:05:19;;;;;;;8.02;4.25;;;;;;;14.37;92.51;98220.56;4993823;28;20030;-62
2021/08/06 03:07:48;;;;;;;8.18;4.30;;;;;;;14.33;92.77;98224.97;4993859;28;21905;-59
2021/08/06 03:10:14;;;;;;;9.43;4.57;;;;;;;14.38;92.40;98218.72;4993714;28;20033;-60
2021/08/06 03:12:39;;;;;;;12.30;4.45;;;;;;;14.44;92.58;98225.63;4993180;28;20075;-60
2021/08/06 03:15:05;;;;;;;10.80;4.55;;;;;;;14.34;92.32;98217.69;4993688;28;20417;-60
2021/08/06 03:17:31;;;;;;;7.30;4.80;;;;;;;14.35;92.52;98212.00;4994336;28;20138;-60
2021/08/06 03:19:56;;;;;;;7.00;4.45;;;;;;;14.29;92.54;98205.06;4994035;28;20026;-60
2021/08/06 03:22:22;;;;;;;8.60;4.70;;;;;;;14.28;92.89;98206.19;4993333;28;20034;-60
2021/08/06 03:24:47;;;;;;;8.57;4.60;;;;;;;14.27;92.75;98195.66;4993766;28;20023;-60
2021/08/06 03:27:12;;;;;;;8.07;4.45;;;;;;;14.24;92.81;98195.16;4993388;28;20397;-60
2021/08/06 03:29:38;;;;;;;13.88;5.20;;;;;;;14.28;92.82;98198.09;5008621;28;20104;-60
2021/08/06 03:32:04;;;;;;;10.70;5.03;;;;;;;14.31;92.57;98197.50;4993406;28;20166;-60
2021/08/06 03:34:29;;;;;;;10.02;5.15;;;;;;;14.35;92.42;98203.91;4993795;28;20026;-60
2021/08/06 03:36:54;;;;;;;11.73;5.32;;;;;;;14.37;92.68;98201.72;4993336;28;20062;-60
2021/08/06 03:39:21;;;;;;;11.45;5.57;;;;;;;14.47;92.47;98208.84;4993230;28;20065;-61
2021/08/06 03:41:46;;;;;;;8.95;5.35;;;;;;;14.52;92.15;98207.97;4993201;28;20054;-60
2021/08/06 03:44:12;;;;;;;12.45;5.40;;;;;;;14.55;92.04;98207.41;4993898;28;20019;-60
2021/08/06 03:46:37;;;;;;;10.82;5.07;;;;;;;14.55;91.84;98202.84;4992134;28;20034;-60
2021/08/06 03:49:02;;;;;;;10.85;5.40;;;;;;;14.60;91.66;98205.47;4993328;28;20400;-60
2021/08/06 03:51:28;;;;;;;11.77;5.75;;;;;;;14.58;91.74;98198.75;4993236;28;20038;-67
2021/08/06 03:53:54;;;;;;;15.75;5.85;;;;;;;14.63;91.26;98193.28;4993408;28;20022;-61
2021/08/06 03:56:19;;;;;;;8.50;5.05;;;;;;;14.65;91.19;98193.75;4993087;28;20426;-62
2021/08/06 03:58:44;;;;;;;11.68;5.05;;;;;;;14.63;91.41;98194.09;4993362;28;20029;-61
2021/08/06 04:01:10;;;;;;;8.25;5.30;;;;;;;14.62;91.72;98192.47;4992772;28;20037;-61
2021/08/06 04:03:35;;;;;;;11.27;6.05;;;;;;;14.64;91.52;98194.88;4975894;28;20030;-61
2021/08/06 04:06:01;;;;;;;9.68;5.25;;;;;;;14.69;91.43;98196.69;4992341;28;20039;-61
2021/08/06 04:08:26;;;;;;;11.30;5.70;;;;;;;14.67;91.61;98196.97;4991942;28;20062;-61
2021/08/06 04:10:52;;;;;;;13.80;6.13;;;;;;;14.67;91.78;98188.88;4993330;28;20054;-61
2021/08/06 04:13:17;;;;;;;8.68;5.22;;;;;;;14.66;91.92;98185.41;4993273;28;20031;-61
2021/08/06 04:15:43;;;;;;;11.25;5.97;;;;;;;14.72;91.94;98191.50;4992839;28;20039;-61
2021/08/06 04:18:08;;;;;;;15.57;5.78;;;;;;;14.63;92.30;98198.69;4993470;28;20033;-61
2021/08/06 04:20:34;;;;;;;10.90;6.32;;;;;;;14.65;92.26;98199.16;4993108;28;20500;-61
2021/08/06 04:22:59;;;;;;;10.75;5.93;;;;;;;14.61;92.75;98188.19;4992817;28;20037;-61
2021/08/06 04:25:25;;;;;;;10.68;5.70;;;;;;;14.62;92.94;98186.28;4993034;28;20049;-61
2021/08/06 04:27:50;;;;;;;8.95;5.35;;;;;;;14.64;92.53;98184.88;4993418;28;20038;-61
2021/08/06 04:30:15;;;;;;;9.15;5.88;;;;;;;14.65;92.62;98180.28;4992723;28;20389;-61
2021/08/06 04:32:41;;;;;;;10.07;5.20;;;;;;;14.66;92.64;98184.59;4993152;28;20089;-61
2021/08/06 04:35:07;;;;;;;9.43;5.47;;;;;;;14.73;92.07;98182.34;4991438;28;20504;-61
2021/08/06 04:37:33;;;;;;;8.98;5.60;;;;;;;14.78;92.00;98184.16;4993161;28;20065;-61
2021/08/06 04:39:58;;;;;;;7.22;5.03;;;;;;;14.82;91.73;98185.13;4993212;28;20105;-61
2021/08/06 04:42:24;;;;;;;9.25;5.10;;;;;;;14.87;91.48;98188.53;4992711;28;20045;-62
2021/08/06 04:44:49;;;;;;;7.43;4.97;;;;;;;14.87;91.48;98185.84;4992065;28;20413;-61
2021/08/06 04:47:15;;;;;;;12.35;4.82;;;;;;;14.93;92.14;98186.59;4992933;28;20035;-61
2021/08/06 04:49:40;;;;;;;8.60;5.10;;;;;;;14.94;92.19;98185.47;4993127;28;20465;-61
2021/08/06 04:52:06;;;;;;;8.23;5.20;;;;;;;14.93;92.62;98185.78;4995477;28;20466;-61
2021/08/06 04:54:31;;;;;;;9.23;4.72;;;;;;;14.86;93.13;98184.25;4995658;28;20080;-61
2021/08/06 04:56:57;;;;;;;13.50;5.22;;;;;;;14.94;93.05;98181.97;4995304;28;20077;-61
2021/08/06 04:59:22;;;;;;;7.35;5.00;;;;;;;14.89;93.39;98180.97;4995632;28;20093;-61
2021/08/06 05:01:48;;;;;;;9.70;5.20;;;;;;;15.07;93.32;98182.00;4996500;28;20035;-61
2021/08/06 05:04:13;;;;;;;6.60;4.78;;;;;;;15.07;92.83;98181.19;5028409;28;20026;-61
2021/08/06 05:06:39;;;;;;;7.97;5.13;;;;;;;15.07;93.15;98178.50;4996257;28;20034;-61
2021/08/06 05:09:04;;;;;;;7.63;4.88;;;;;;;15.03;93.01;98180.22;4996445;28;20053;-61
2021/08/06 05:11:30;;;;;;;6.95;4.88;;;;;;;14.99;93.65;98179.19;4996330;28;20045;-61
2021/08/06 05:13:55;;;;;;;8.90;4.95;;;;;;;15.02;92.94;98178.59;4996466;28;20022;-61
2021/08/06 05:16:20;;;;;;;8.48;5.18;;;;;;;14.98;93.07;98174.91;4996268;28;20496;-61
2021/08/06 05:18:46;;;;;;;8.48;6.07;;;;;;;15.00;93.16;98173.50;4996522;28;20147;-61
2021/08/06 05:21:11;;;;;;;7.28;4.85;;;;;;;15.03;93.21;98174.81;4996151;28;20038;-61
2021/08/06 05:23:37;;;;;;;5.18;3.92;;;;;;;14.99;93.26;98171.91;4996290;28;20062;-61
2021/08/06 05:26:03;;;;;;;5.95;4.50;;;;;;;15.01;93.35;98172.41;4995676;28;20057;-61
2021/08/06 05:28:28;;;;;;;7.95;4.57;;;;;;;15.05;93.44;98167.19;4996241;28;20088;-61
2021/08/06 05:30:54;;;;;;;5.68;4.20;;;;;;;15.08;93.58;98166.63;4994406;28;20031;-61
2021/08/06 05:33:19;;;;;;;6.35;4.57;;;;;;;15.23;93.60;98173.66;4996094;28;20034;-61
2021/08/06 05:35:44;;;;;;;5.57;4.10;;;;;;;15.14;93.49;98175.44;4995521;28;20050;-61
2021/08/06 05:38:10;;;;;;;7.07;4.35;;;;;;;15.11;93.75;98179.53;4995888;28;20034;-61
2021/08/06 05:40:35;;;;;;;5.65;4.38;;;;;;;15.10;93.99;98175.19;4995722;28;20428;-61
2021/08/06 05:43:01;;;;;;;7.05;3.38;;;;;;;15.06;93.66;98185.00;4996003;28;20409;-61
2021/08/06 05:45:26;;;;;;;7.88;4.32;;;;;;;15.18;93.54;98177.22;4995620;28;20077;-61
2021/08/06 05:47:53;;;;;;;5.72;4.00;;;;;;;15.12;94.05;98183.81;4995741;28;20026;-61
2021/08/06 05:50:20;;;;;;;6.93;4.00;;;;;;;15.09;94.01;98182.50;4994931;28;20117;-61
2021/08/06 05:52:45;;;;;;;6.35;4.50;;;;;;;15.29;94.03;98194.03;4995313;28;20029;-61
2021/08/06 05:55:11;;;;;;;5.10;3.95;;;;;;;15.29;94.09;98194.81;4995434;28;20393;-61
2021/08/06 05:57:36;;;;;;;5.57;3.92;;;;;;;15.23;93.83;98185.22;4994444;28;20374;-61
2021/08/06 06:00:03;;;;;;;6.30;4.40;;;;;;;15.29;94.43;98184.03;4995406;28;20117;-61
2021/08/06 06:02:28;;;;;;;7.45;4.30;;;;;;;15.39;93.88;98184.94;4995622;28;20030;-61
2021/08/06 06:04:54;;;;;;;8.93;3.92;;;;;;;15.32;93.91;98185.34;4994719;28;20480;-61
2021/08/06 06:07:19;;;;;;;7.25;3.90;;;;;;;15.52;93.46;98197.66;4995244;28;20046;-61
2021/08/06 06:09:44;;;;;;;5.72;3.60;;;;;;;16.90;86.81;98199.25;4995675;28;20042;-61
2021/08/06 06:12:10;;;;;;;5.07;3.47;;;;;;;18.28;81.83;98204.44;4995061;28;20037;-61
2021/08/06 06:14:35;;;;;;;5.38;2.80;;;;;;;18.50;77.64;98208.13;4995310;28;20030;-61
2021/08/06 06:17:01;;;;;;;3.40;2.50;;;;;;;17.61;83.54;98208.22;4994954;28;20038;-61
2021/08/06 06:19:26;;;;;;;3.78;2.47;;;;;;;17.71;82.64;98215.28;4995035;28;20073;-61
2021/08/06 06:21:52;;;;;;;3.75;2.13;;;;;;;18.46;80.05;98221.50;4994962;28;20041;-61
2021/08/06 06:24:17;;;;;;;3.70;2.08;;;;;;;18.95;78.71;98230.28;4995386;28;20038;-62
2021/08/06 06:26:42;;;;;;;2.85;2.00;;;;;;;18.02;82.27;98225.28;4993526;28;20045;-62
2021/08/06 06:29:08;;;;;;;3.90;2.20;;;;;;;17.39;85.70;98236.19;4995309;28;20041;-62
2021/08/06 06:31:34;;;;;;;3.10;1.98;;;;;;;16.84;87.90;98236.47;4994963;28;20042;-62
2021/08/06 06:34:00;;;;;;;2.90;2.20;;;;;;;16.37;90.23;98233.19;4995118;28;20042;-62
2021/08/06 06:36:26;;;;;;;4.13;2.10;;;;;;;16.94;88.74;98230.81;4994567;28;20042;-62
2021/08/06 06:38:52;;;;;;;4.10;2.30;;;;;;;17.27;86.39;98230.53;4994087;28;20026;-62
2021/08/06 06:41:17;;;;;;;2.83;2.10;;;;;;;17.09;88.01;98236.97;4994162;28;20481;-62
2021/08/06 06:43:43;;;;;;;3.72;2.30;;;;;;;17.01;87.18;98225.78;4995121;28;20469;-62
2021/08/06 06:46:11;;;;;;;5.82;2.38;;;;;;;17.17;88.19;98228.09;4994190;28;20037;-62
2021/08/06 06:48:36;;;;;;;5.68;2.20;;;;;;;17.14;87.26;98226.00;4993425;28;20026;-62
2021/08/06 06:51:02;;;;;;;4.93;2.20;;;;;;;16.93;88.70;98229.22;4993234;28;20084;-62
2021/08/06 06:53:27;;;;;;;5.90;2.25;;;;;;;17.11;87.81;98234.75;4995091;28;20037;-63
2021/08/06 06:55:53;;;;;;;3.60;2.20;;;;;;;16.95;88.27;98229.72;4994520;28;20397;-62
2021/08/06 06:58:18;;;;;;;4.45;2.17;;;;;;;17.14;87.75;98229.50;4993714;28;20436;-62
2021/08/06 07:00:44;;;;;;;7.38;2.80;;;;;;;18.63;83.00;98239.72;4994327;28;20488;-62
2021/08/06 07:03:09;;;;;;;5.78;2.00;;;;;;;22.64;66.15;98247.53;4994579;28;20065;-62
2021/08/06 07:05:35;;;;;;;3.85;1.90;;;;;;;23.39;62.02;98246.91;4994060;28;20034;-62
2021/08/06 07:08:02;;;;;;;3.65;1.70;;;;;;;24.37;60.94;98253.56;4994182;28;20042;-62
2021/08/06 07:10:27;;;;;;;2.55;1.48;;;;;;;21.93;67.24;98246.94;4994172;28;20046;-61
2021/08/06 07:12:54;;;;;;;2.63;1.67;;;;;;;21.44;68.47;98246.88;4993759;28;20026;-62
2021/08/06 07:15:20;;;;;;;2.95;1.38;;;;;;;22.09;67.24;98255.22;5025425;28;20030;-61
2021/08/06 07:17:45;;;;;;;3.22;1.52;;;;;;;22.44;65.27;98255.56;4994495;28;20011;-61
2021/08/06 07:20:12;;;;;;;3.17;1.70;;;;;;;22.93;63.91;98251.88;4993903;28;20049;-62
2021/08/06 07:22:37;;;;;;;5.60;1.77;;;;;;;22.17;66.84;98252.38;4994334;28;20022;-61
2021/08/06 07:25:04;;;;;;;2.33;1.52;;;;;;;23.14;62.92;98259.88;4994071;28;20314;-61
2021/08/06 07:27:29;;;;;;;2.15;1.40;;;;;;;25.28;54.51;98252.31;4994391;28;20030;-61
2021/08/06 07:29:54;;;;;;;3.85;1.40;;;;;;;24.91;56.56;98260.97;4993765;28;20038;-61
2021/08/06 07:32:20;;;;;;;3.53;1.38;;;;;;;23.34;59.93;98258.06;4993700;28;20035;-61
2021/08/06 07:34:45;;;;;;;4.22;1.65;;;;;;;24.50;57.23;98263.25;5025553;28;20057;-61
2021/08/06 07:37:11;;;;;;;3.78;1.27;;;;;;;24.89;55.07;98266.03;4993662;28;20065;-61
2021/08/06 07:39:38;;;;;;;3.53;1.70;;;;;;;25.24;54.10;98268.72;4993644;28;20026;-61
2021/08/06 07:42:04;;;;;;;4.53;1.60;;;;;;;25.47;54.59;98266.00;4993571;28;20108;-61
2021/08/06 07:44:29;;;;;;;3.65;1.30;;;;;;;25.67;52.89;98274.16;4994236;28;20385;-62
2021/08/06 07:46:54;;;;;;;2.65;1.55;;;;;;;21.94;64.41;98281.25;5024952;28;20034;-61
2021/08/06 07:49:20;;;;;;;6.05;1.70;;;;;;;20.25;70.86;98274.47;4992515;28;20038;-61
2021/08/06 07:51:46;;;;;;;5.43;1.92;;;;;;;22.87;63.48;98273.19;4993819;28;20063;-61
2021/08/06 07:54:11;;;;;;;8.52;1.70;;;;;;;24.25;58.03;98277.16;4993855;28;20026;-61
2021/08/06 07:56:37;;;;;;;4.90;1.67;;;;;;;24.33;57.95;98275.38;4993343;28;20409;-62
2021/08/06 07:59:02;;;;;;;2.45;1.50;;;;;;;23.59;60.46;98265.00;4993987;28;20084;-61
2021/08/06 08:01:27;;;;;;;5.30;1.90;;;;;;;23.71;57.99;98272.31;4993341;28;20045;-61
2021/08/06 08:03:53;;;;;;;5.25;1.60;;;;;;;23.99;57.24;98265.97;4993608;28;20045;-61
2021/08/06 08:06:18;;;;;;;3.22;1.70;;;;;;;21.45;65.00;98270.31;4993389;28;20097;-61
2021/08/06 08:08:44;;;;;;;4.68;1.90;;;;;;;21.62;65.00;98283.75;4993327;28;20117;-61
2021/08/06 08:11:09;;;;;;;4.32;1.80;;;;;;;21.34;65.58;98280.78;4993384;28;20385;-61
2021/08/06 08:13:35;;;;;;;6.82;2.00;;;;;;;20.56;68.93;98282.28;4993634;28;20030;-61
2021/08/06 08:16:00;;;;;;;6.05;1.95;;;;;;;20.81;65.99;98279.69;4992014;28;20041;-61
2021/08/06 08:18:25;;;;;;;7.05;2.17;;;;;;;20.37;67.33;98287.34;4993190;28;20156;-61
2021/08/06 08:20:51;;;;;;;6.95;2.55;;;;;;;19.82;70.01;98289.06;4993253;28;20049;-61
2021/08/06 08:23:17;;;;;;;7.22;2.28;;;;;;;20.07;69.78;98290.09;4992308;28;20026;-61
2021/08/06 08:25:42;;;;;;;4.72;2.28;;;;;;;21.65;63.87;98296.69;4996483;28;20104;-61
2021/08/06 08:28:08;;;;;;;5.18;2.38;;;;;;;21.24;62.81;98301.13;4997361;28;20030;-61
2021/08/06 08:30:33;;;;;;;6.25;2.25;;;;;;;20.31;67.46;98294.88;4997266;28;20038;-61
2021/08/06 08:32:59;;;;;;;4.75;2.15;;;;;;;20.66;65.88;98300.13;4997503;28;20113;-61
2021/08/06 08:35:24;;;;;;;4.70;2.00;;;;;;;20.70;65.79;98301.09;4997082;28;20030;-61
2021/08/06 08:37:50;;;;;;;7.78;2.20;;;;;;;20.67;66.78;98301.75;4997352;28;20022;-61
2021/08/06 08:40:15;;;;;;;3.95;2.22;;;;;;;19.58;68.54;98300.47;4995660;28;20069;-61
2021/08/06 08:42:41;;;;;;;6.05;2.20;;;;;;;19.99;68.71;98299.88;4997327;28;20081;-60
2021/08/06 08:45:06;;;;;;;6.82;2.10;;;;;;;19.27;69.05;98311.56;4979486;28;20077;-61
2021/08/06 08:47:36;;;;;;;4.68;2.42;;;;;;;19.26;70.53;98307.25;4997094;28;20473;-61
2021/08/06 08:50:03;;;;;;;5.60;2.60;;;;;;;18.86;72.93;98319.09;4996232;28;20066;-61
2021/08/06 08:52:28;;;;;;;9.82;3.00;;;;;;;18.87;73.23;98314.44;4997614;28;20032;-62
2021/08/06 08:54:53;;;;;;;3.67;2.10;;;;;;;18.78;72.82;98319.88;4997237;28;20058;-60
2021/08/06 08:57:20;;;;;;;5.10;2.40;;;;;;;19.13;72.19;98315.25;4996606;28;20027;-60
2021/08/06 08:59:45;;;;;;;6.95;2.42;;;;;;;19.14;71.86;98311.41;4996814;28;20023;-60
2021/08/06 09:02:11;;;;;;;7.70;2.50;;;;;;;19.29;71.60;98322.91;4996449;28;20041;-60
2021/08/06 09:04:36;;;;;;;4.07;2.10;;;;;;;19.05;72.05;98321.50;4995795;28;20038;-60
2021/08/06 09:07:02;;;;;;;5.85;2.40;;;;;;;19.08;72.52;98315.41;4994893;28;20053;-60
2021/08/06 09:09:28;;;;;;;4.75;2.00;;;;;;;19.14;71.40;98308.69;4997093;28;20045;-62
2021/08/06 09:12:07;;;;;;;6.10;2.25;;;;;;;19.34;69.59;98306.44;4978950;28;20493;-60
2021/08/06 09:14:33;;;;;;;4.90;2.08;;;;;;;18.99;70.38;98302.97;4996818;28;20030;-61
2021/08/06 09:17:05;;;;;;;6.90;2.35;;;;;;;19.05;70.09;98305.19;4995070;28;20117;-61
2021/08/06 09:19:38;;;;;;;4.72;2.30;;;;;;;19.08;70.57;98309.19;4996836;28;20053;-61
2021/08/06 09:22:20;;;;;;;7.10;2.60;;;;;;;18.99;70.75;98314.63;4996089;28;20039;-61
2021/08/06 09:25:06;;;;;;;8.00;2.58;;;;;;;18.81;72.35;98321.97;4995346;28;20046;-61
2021/08/06 09:27:33;;;;;;;5.85;2.20;;;;;;;18.75;73.21;98306.94;4996389;28;20051;-61
2021/08/06 09:29:59;;;;;;;6.68;2.42;;;;;;;18.74;72.87;98310.75;4996469;28;20029;-61
2021/08/06 09:32:26;;;;;;;8.65;2.35;;;;;;;19.23;72.54;98316.06;4995870;28;20042;-61
2021/08/06 09:34:51;;;;;;;4.97;2.33;;;;;;;19.42;71.18;98315.69;4995059;28;20110;-61
2021/08/06 09:37:21;;;;;;;5.05;2.53;;;;;;;19.90;70.19;98317.34;4995363;28;20038;-61
2021/08/06 09:39:53;;;;;;;;;;;;;;;19.80;69.90;98318.50;4997146;28;20156;-61
2021/08/06 09:42:32;;;;;;;4.57;2.05;;;;;;;19.43;69.19;98326.25;4995802;28;19918;-61
2021/08/06 09:45:09;;;;;;;4.43;2.03;;;;;;;19.49;69.50;98316.78;4994990;28;20018;-62
2021/08/06 09:47:36;;;;;;;6.47;2.00;;;;;;;19.31;68.90;98321.47;4995906;28;20039;-61
2021/08/06 09:50:04;;;;;;;6.13;2.40;;;;;;;19.15;70.41;98329.31;4994299;28;20092;-61
2021/08/06 09:52:31;;;;;;;9.05;2.83;;;;;;;18.93;70.99;98340.34;4996311;28;20461;-61
2021/08/06 09:54:56;;;;;;;4.80;2.25;;;;;;;18.90;71.83;98340.97;4995714;28;20461;-61
2021/08/06 09:57:22;;;;;;;4.05;2.22;;;;;;;18.60;72.58;98332.63;4995449;28;20065;-61
2021/08/06 09:59:52;;;;;;;5.45;2.22;;;;;;;18.44;73.23;98339.59;4995997;28;20022;-61
2021/08/06 10:02:21;;;;;;;4.90;2.42;;;;;;;18.21;76.92;98342.41;4995467;28;20497;-61
2021/08/06 10:05:05;;;;;;;4.15;2.25;;;;;;;18.06;77.17;98334.69;4995453;28;20046;-61
2021/08/06 10:07:40;;;;;;;5.80;2.65;;;;;;;18.29;76.95;98338.91;4995445;28;20051;-61
2021/08/06 10:10:09;;;;;;;5.88;2.30;;;;;;;18.40;77.01;98338.66;4995091;28;20030;-61
2021/08/06 10:12:35;;;;;;;4.85;2.30;;;;;;;18.17;78.66;98333.31;4995684;28;20022;-61
2021/08/06 10:15:01;;;;;;;4.90;2.20;;;;;;;17.88;77.42;98323.00;4994982;28;20022;-62
2021/08/06 10:17:26;;;;;;;4.80;2.55;;;;;;;18.33;76.01;98322.81;5026810;28;20045;-61
2021/08/06 10:19:52;;;;;;;5.10;2.75;;;;;;;18.71;74.41;98325.75;4994544;28;20446;-61
2021/08/06 10:22:17;;;;;;;5.30;2.30;;;;;;;19.32;72.22;98324.97;4994960;28;20034;-61
2021/08/06 10:24:45;;;;;;;5.80;2.55;;;;;;;19.61;70.76;98333.22;4995520;28;20031;-61
2021/08/06 10:27:12;;;;;;;7.93;2.67;;;;;;;19.52;69.17;98324.31;4977834;28;20385;-61
2021/08/06 10:29:37;;;;;;;5.00;2.30;;;;;;;20.32;67.30;98328.34;4977811;28;20049;-61
2021/08/06 10:32:15;;;;;;;6.90;2.50;;;;;;;19.82;67.93;98321.69;4993593;28;20034;-61
2021/08/06 10:35:16;;;;;;;6.20;2.10;;;;;;;20.41;65.96;98326.38;4995111;28;20026;-61
2021/08/06 10:37:50;;;;;;;5.47;2.25;;;;;;;21.57;61.89;98333.03;4993577;28;20042;-61
2021/08/06 10:40:39;;;;;;;4.78;2.45;;;;;;;22.73;57.04;98316.47;4994478;28;20473;-61
2021/08/06 10:43:10;;;;;;;5.72;1.85;;;;;;;22.61;57.66;98325.47;4993856;28;20042;-61
2021/08/06 10:45:47;;;;;;;5.35;1.83;;;;;;;23.88;53.64;98310.28;4994593;28;20568;-61
2021/08/06 10:48:28;;;;;;;3.55;1.88;;;;;;;23.97;52.50;98307.41;5025392;28;20030;-61
2021/08/06 10:51:12;;;;;;;5.00;1.80;;;;;;;21.91;55.79;98317.41;4994637;28;20122;-61
2021/08/06 10:53:37;;;;;;;4.05;1.80;;;;;;;22.03;54.34;98313.91;5026469;28;20510;-61
2021/08/06 10:56:18;;;;;;;3.58;1.63;;;;;;;22.84;53.75;98309.41;4994354;28;20050;-61
2021/08/06 10:58:52;;;;;;;7.35;1.77;;;;;;;22.24;54.94;98313.81;4994694;28;20034;-61
2021/08/06 11:01:27;;;;;;;3.50;1.73;;;;;;;23.03;54.09;98309.59;4994416;28;20117;-61
2021/08/06 11:03:59;;;;;;;3.17;1.73;;;;;;;23.51;52.35;98314.38;4994599;28;20199;-61
2021/08/06 11:06:34;;;;;;;4.43;1.80;;;;;;;23.35;52.89;98315.16;4994089;28;20113;-61
2021/08/06 11:09:00;;;;;;;4.45;1.92;;;;;;;22.91;53.97;98315.06;4994423;28;20050;-61
2021/08/06 11:11:52;;;;;;;6.50;2.15;;;;;;;22.68;52.73;98314.78;4993756;28;20386;-61
2021/08/06 11:14:30;;;;;;;4.75;1.70;;;;;;;21.83;55.02;98318.31;5025876;28;20026;-61
2021/08/06 11:17:15;;;;;;;7.05;1.90;;;;;;;22.18;54.33;98318.66;4994034;28;20039;-61
2021/08/06 11:19:44;;;;;;;4.78;1.73;;;;;;;22.77;53.15;98328.31;4994181;28;20039;-61
2021/08/06 11:22:11;;;;;;;5.18;1.80;;;;;;;22.84;52.65;98328.53;4993918;28;20381;-60
2021/08/06 11:24:41;;;;;;;4.10;1.63;;;;;;;22.57;52.93;98336.31;4994217;28;20018;-60
2021/08/06 11:27:06;;;;;;;2.75;1.58;;;;;;;22.64;53.03;98324.81;4993717;28;20037;-61
2021/08/06 11:29:32;;;;;;;5.70;1.60;;;;;;;23.27;51.74;98327.03;4994144;28;20034;-60
2021/08/06 11:31:59;;;;;;;2.70;1.48;;;;;;;22.93;51.44;98336.56;4992372;28;20030;-61